Latest Weather Observations for North Island

IDW60801

Issued at 10:53 pm WST Saturday 23 January 2021 (issued every 10 minutes, with the page automatically refreshed every 10 minutes)

About weather observations | Map of weather stations | Latest weather observations for WA | Other Formats
Station Details ID: 008290 Name: NORTH ISLAND Lat: -28.30 Lon: 113.59 Height: 2.2 m
Data from the previous 72 hours. | See also: Recent months at North Island
Date/Time
WST
Temp
°C
App
Temp
°C
Dew
Point
°C
Rel
Hum
%
Delta-T
°C
Wind Press
QNH
hPa
Press
MSL
hPa
Rain since
9am
mm
Dir  Spd
km/h
Gust
km/h
Spd
kts
Gust
kts
23/10:30pm 22.2 19.4 15.3 65 4.1 SW 24 30 13 16 1007.5 1007.5 0.0
23/10:00pm 22.8 19.4 13.6 56 5.3 WSW 24 32 13 17 1007.5 1007.5 0.0
23/09:30pm 23.2 19.4 12.5 51 6.1 W 24 30 13 16 1007.4 1007.4 0.0
23/09:00pm 23.3 19.6 15.1 60 4.9 SW 28 33 15 18 1007.2 1007.2 0.0
23/08:30pm 23.0 19.5 15.6 63 4.4 SW 28 37 15 20 1007.2 1007.2 0.0
23/08:00pm 23.2 20.1 16.5 66 4.1 SW 28 33 15 18 1006.9 1006.9 0.0
23/07:30pm 23.2 20.3 17.0 68 3.8 SW 28 33 15 18 1006.6 1006.6 0.0
23/07:00pm 23.4 20.3 17.4 69 3.7 SW 30 35 16 19 1006.3 1006.3 0.0
23/06:30pm 23.7 20.9 17.4 68 3.9 SW 28 33 15 18 1006.0 1006.0 0.0
23/06:00pm 24.0 21.3 17.5 67 4.1 SW 28 33 15 18 1005.8 1005.8 0.0
23/05:30pm 24.6 22.3 17.6 65 4.4 SW 26 33 14 18 1005.5 1005.5 0.0
23/05:00pm 25.1 23.0 18.1 65 4.4 SW 26 33 14 18 1005.2 1005.2 0.0
23/04:30pm 25.1 22.4 17.6 63 4.7 SW 28 35 15 19 1005.1 1005.1 0.0
23/04:00pm 26.1 24.4 18.2 61 5.0 SW 24 32 13 17 1005.1 1005.1 0.0
23/03:30pm 26.4 24.3 17.2 57 5.7 SW 24 28 13 15 1005.2 1005.2 0.0
23/03:00pm 26.1 24.4 17.2 58 5.6 SW 22 28 12 15 1005.3 1005.3 0.0
23/02:30pm 27.0 25.5 17.8 57 5.8 SW 22 28 12 15 1005.2 1005.2 0.0
23/02:00pm 26.6 24.7 16.8 55 6.1 SW 22 28 12 15 1005.1 1005.1 0.0
23/01:30pm 27.6 25.5 18.0 55 6.1 SW 26 32 14 17 1005.0 1005.0 0.0
23/01:00pm 28.0 26.0 18.4 56 6.2 SW 26 33 14 18 1004.9 1004.9 0.0
23/12:30pm 27.8 26.0 17.0 51 6.8 SW 22 28 12 15 1005.2 1005.2 0.0
23/12:00pm 27.7 26.0 17.3 53 6.5 SW 22 28 12 15 1005.4 1005.4 0.0
23/11:30am 27.2 25.2 16.5 52 6.6 SW 22 28 12 15 1005.5 1005.5 0.0
23/11:00am 27.1 25.2 16.7 53 6.5 SW 22 28 12 15 1005.6 1005.6 0.0
23/10:30am 26.7 24.5 16.0 52 6.6 SW 22 28 12 15 1005.7 1005.7 0.0
23/10:00am 26.6 24.4 16.8 55 6.1 SW 24 32 13 17 1005.5 1005.5 0.0
23/09:30am 26.1 24.5 17.5 59 5.4 SW 22 26 12 14 1005.4 1005.4 0.0
23/09:00am 25.9 24.1 17.8 61 5.1 SW 24 30 13 16 1005.5 1005.5 0.0
23/08:30am 24.2 21.7 17.0 64 4.4 WSW 26 32 14 17 1005.6 1005.6 0.0
23/08:00am 24.2 21.6 17.9 68 4.0 SW 28 33 15 18 1005.4 1005.4 0.0
23/07:30am 23.6 21.1 18.0 71 3.5 SW 28 33 15 18 1005.2 1005.2 0.0
23/07:00am 23.4 20.8 17.8 71 3.5 SW 28 35 15 19 1004.7 1004.7 0.0
23/06:30am 23.1 20.8 18.4 75 3.0 SW 28 35 15 19 1004.6 1004.6 0.0
23/06:00am 23.1 20.6 18.8 77 2.7 WSW 30 37 16 20 1004.4 1004.4 0.0
23/05:30am 22.9 19.8 18.4 76 2.8 WSW 32 39 17 21 1004.1 1004.1 0.0
23/05:00am 23.1 20.0 18.4 75 3.0 WSW 32 37 17 20 1003.6 1003.6 0.0
23/04:30am 23.2 20.5 19.2 78 2.5 SW 32 37 17 20 1003.5 1003.5 0.0
23/04:00am 23.3 20.6 19.7 80 2.3 WSW 33 39 18 21 1003.4 1003.4 0.0
23/03:30am 23.1 20.6 18.8 77 2.7 WSW 30 33 16 18 1003.3 1003.3 0.0
23/03:00am 23.6 22.7 19.9 80 2.4 WSW 24 32 13 17 1003.2 1003.2 0.0
23/02:30am 23.2 22.7 19.2 78 2.5 WSW 20 26 11 14 1003.5 1003.5 0.0
23/02:00am 23.1 23.0 18.8 77 2.7 SW 17 20 9 11 1003.7 1003.7 0.0
23/01:30am 23.5 24.5 19.4 78 2.6 SSW 13 19 7 10 1003.8 1003.8 0.0
23/01:00am 23.4 23.5 19.1 77 2.7 S 17 19 9 10 1003.8 1003.8 0.0
23/12:30am 23.5 23.2 19.2 77 2.7 S 19 24 10 13 1004.1 1004.1 0.0
23/12:00am 23.9 23.7 19.8 78 2.6 S 20 26 11 14 1004.2 1004.2 0.0
 
Date/Time
WST
Temp
°C
App
Temp
°C
Dew
Point
°C
Rel
Hum
%
Delta-T
°C
Wind Press
QNH
hPa
Press
MSL
hPa
Rain since
9am
mm
Dir  Spd
km/h
Gust
km/h
Spd
kts
Gust
kts
22/11:30pm 24.4 23.2 20.1 77 2.8 S 26 32 14 17 1004.3 1004.3 0.0
22/11:00pm 24.4 23.2 20.1 77 2.8 S 26 32 14 17 1004.6 1004.6 0.0
22/10:30pm 24.6 23.6 20.5 78 2.7 S 26 32 14 17 1004.8 1004.8 0.0
22/10:00pm 24.6 23.1 20.3 77 2.8 S 28 33 15 18 1004.7 1004.7 0.0
22/09:30pm 24.9 23.6 20.6 77 2.8 SSW 28 33 15 18 1004.4 1004.4 0.0
22/09:00pm 25.0 24.1 20.7 77 2.8 SSW 26 32 14 17 1004.5 1004.5 0.0
22/08:30pm 25.0 23.8 20.9 78 2.7 SSW 28 35 15 19 1004.4 1004.4 0.0
22/08:00pm 25.0 23.5 20.9 78 2.7 SSW 30 35 16 19 1004.3 1004.3 0.0
22/07:30pm 25.0 23.1 20.9 78 2.7 SW 32 39 17 21 1004.0 1004.0 0.0
22/07:00pm 25.1 23.0 20.6 76 3.0 SW 32 37 17 20 1003.8 1003.8 0.0
22/06:30pm 25.4 23.7 20.6 75 3.1 SW 30 41 16 22 1003.3 1003.3 0.0
22/06:00pm 25.8 24.6 20.8 74 3.3 SW 28 39 15 21 1003.2 1003.2 0.0
22/05:30pm 26.0 24.4 20.1 70 3.8 SW 28 37 15 20 1002.8 1002.8 0.0
22/05:00pm 26.5 24.9 20.8 71 3.8 SW 30 35 16 19 1002.8 1002.8 0.0
22/04:30pm 27.3 25.5 21.1 69 4.1 SW 32 37 17 20 1003.0 1003.0 0.0
22/04:00pm 27.3 26.5 21.6 71 3.8 SW 28 35 15 19 1003.3 1003.3 0.0
22/03:30pm 27.3 26.9 21.6 71 3.8 SW 26 32 14 17 1003.6 1003.6 0.0
22/03:00pm 28.1 27.7 21.6 68 4.4 SW 26 32 14 17 1003.6 1003.6 0.0
22/02:30pm 28.2 27.8 21.0 65 4.8 SW 24 30 13 16 1003.7 1003.7 0.0
22/02:00pm 28.8 28.6 21.3 64 5.0 SW 24 30 13 16 1003.8 1003.8 0.0
22/01:30pm 28.6 28.5 21.4 65 4.8 SSW 24 30 13 16 1003.8 1003.8 0.0
22/01:00pm 28.6 28.7 21.9 67 4.5 SSW 24 26 13 14 1004.1 1004.1 0.0
22/12:30pm 29.0 29.7 22.2 66 4.6 SSW 22 28 12 15 1004.5 1004.5 0.0
22/12:00pm 28.4 28.5 21.9 68 4.4 SSW 24 32 13 17 1004.6 1004.6 0.0
22/11:30am 27.9 27.8 21.4 67 4.3 SSW 24 30 13 16 1004.9 1004.9 0.0
22/11:00am 28.1 28.1 21.6 68 4.4 SSW 24 32 13 17 1005.0 1005.0 0.0
22/10:30am 27.6 27.8 22.1 72 3.7 SSW 24 32 13 17 1005.2 1005.2 0.0
22/10:00am 27.4 27.9 22.6 75 3.3 S 24 30 13 16 1005.5 1005.5 0.0
22/09:30am 26.5 26.7 22.1 77 3.0 S 24 32 13 17 1005.5 1005.5 0.0
22/09:00am 26.3 26.2 22.2 78 2.8 S 26 32 14 17 1005.5 1005.5 0.0
22/08:30am 25.6 25.4 22.1 81 2.3 S 26 32 14 17 1005.6 1005.6 0.0
22/08:00am 25.5 25.5 22.4 83 2.1 S 26 32 14 17 1005.6 1005.6 0.0
22/07:30am 25.0 23.7 22.1 84 1.9 S 32 39 17 21 1005.4 1005.4 0.0
22/07:00am 24.4 22.9 21.7 85 1.8 S 32 37 17 20 1005.4 1005.4 0.0
22/06:30am 24.1 22.5 21.6 86 1.7 S 32 39 17 21 1005.2 1005.2 0.0
22/06:00am 23.9 22.1 21.2 85 1.8 S 32 37 17 20 1004.8 1004.8 0.0
22/05:30am 23.8 21.7 20.9 84 1.9 S 33 41 18 22 1004.7 1004.7 0.0
22/05:00am 23.8 21.9 20.9 84 1.9 S 32 39 17 21 1004.6 1004.6 0.0
22/04:30am 23.8 22.0 21.1 85 1.8 S 32 39 17 21 1004.6 1004.6 0.0
22/04:00am 23.8 22.3 20.9 84 1.9 S 30 39 16 21 1004.6 1004.6 0.0
22/03:30am 23.7 21.5 20.8 84 1.9 S 33 41 18 22 1004.7 1004.7 0.0
22/03:00am 23.6 21.9 20.5 83 2.0 S 30 37 16 20 1005.2 1005.2 0.0
22/02:30am 23.6 21.5 20.5 83 2.0 S 32 37 17 20 1005.4 1005.4 0.0
22/02:00am 23.6 22.2 20.5 83 2.0 S 28 33 15 18 1005.7 1005.7 0.0
22/01:30am 23.6 22.2 20.5 83 2.0 S 28 35 15 19 1006.0 1006.0 0.0
22/01:00am 23.6 21.9 20.5 83 2.0 S 30 35 16 19 1006.2 1006.2 0.0
22/12:30am 23.8 22.2 20.7 83 2.0 SSE 30 35 16 19 1006.4 1006.4 0.0
22/12:00am 23.9 22.3 20.8 83 2.0 SSE 30 35 16 19 1006.7 1006.7 0.0
 
Date/Time
WST
Temp
°C
App
Temp
°C
Dew
Point
°C
Rel
Hum
%
Delta-T
°C
Wind Press
QNH
hPa
Press
MSL
hPa
Rain since
9am
mm
Dir  Spd
km/h
Gust
km/h
Spd
kts
Gust
kts
21/11:30pm 23.8 22.1 20.5 82 2.1 SSE 30 37 16 20 1007.0 1007.0 0.0
21/11:00pm 23.9 22.7 20.8 83 2.0 SSE 28 35 15 19 1007.3 1007.3 0.0
21/10:30pm 24.1 22.1 20.8 82 2.2 SSE 32 39 17 21 1007.2 1007.2 0.0
21/10:00pm 24.0 22.6 20.5 81 2.3 SSE 28 37 15 20 1007.6 1007.6 0.0
21/09:30pm 24.3 23.1 20.8 81 2.3 SSE 28 37 15 20 1007.5 1007.5 0.0
21/09:00pm 24.4 22.4 20.7 80 2.4 SSE 32 41 17 22 1007.1 1007.1 0.0
21/08:30pm 24.3 22.1 20.4 79 2.5 SSE 32 41 17 22 1007.0 1007.0 0.0
21/08:00pm 24.3 22.2 20.6 80 2.4 SSE 32 39 17 21 1006.9 1006.9 0.0
21/07:30pm 24.4 22.2 20.7 80 2.4 S 33 39 18 21 1006.8 1006.8 0.0
21/07:00pm 24.7 22.2 20.8 79 2.6 S 35 43 19 23 1006.7 1006.7 0.0
21/06:30pm 25.2 22.7 20.9 77 2.8 S 35 44 19 24 1006.5 1006.5 0.0
21/06:00pm 25.7 23.3 21.1 76 3.0 S 35 43 19 23 1006.6 1006.6 0.0
21/05:30pm 26.5 24.9 21.5 74 3.3 S 32 39 17 21 1006.7 1006.7 0.0
21/05:00pm 26.9 25.0 21.4 72 3.7 S 33 39 18 21 1006.7 1006.7 0.0
21/04:30pm 26.4 24.2 20.7 71 3.7 S 33 43 18 23 1006.9 1006.9 0.0
21/04:00pm 27.3 25.4 20.9 68 4.2 S 32 39 17 21 1007.3 1007.3 0.0
21/03:30pm 27.5 25.5 20.8 67 4.4 S 32 37 17 20 1007.7 1007.7 0.0
21/03:00pm 27.7 26.1 20.8 66 4.6 S 30 35 16 19 1008.1 1008.1 0.0
21/02:30pm 28.3 27.6 21.1 65 4.8 S 26 32 14 17 1008.5 1008.5 0.0
21/02:00pm 27.1 26.2 20.7 68 4.2 S 26 33 14 18 1008.8 1008.8 0.0
21/01:30pm 27.1 26.2 20.7 68 4.2 S 26 33 14 18 1009.0 1009.0 0.0
21/01:00pm 27.4 26.5 20.7 67 4.4 S 26 30 14 16 1009.2 1009.2 0.0
21/12:30pm 27.3 26.5 20.9 68 4.2 S 26 32 14 17 1009.4 1009.4 0.0
21/12:00pm 26.9 26.7 21.2 71 3.8 SSE 24 30 13 16 1009.9 1009.9 0.0
21/11:30am 25.8 25.2 20.6 73 3.4 S 24 32 13 17 1010.0 1010.0 0.0
21/11:00am 25.5 24.8 21.0 76 3.0 SSE 26 32 14 17 1010.2 1010.2 0.0
21/10:30am 25.2 24.6 20.5 75 3.1 SSE 24 30 13 16 1010.4 1010.4 0.0
21/10:00am 24.7 23.8 20.6 78 2.7 SSE 26 33 14 18 1010.8 1010.8 0.0
21/09:30am 24.4 23.9 20.7 80 2.4 SSE 24 30 13 16 1011.0 1011.0 0.0
21/09:00am 23.9 22.8 20.2 80 2.4 SSE 26 33 14 18 1011.1 1011.1 0.0
21/08:30am 23.9 22.4 20.2 80 2.4 SSE 28 37 15 20 1011.5 1011.5 0.0
21/08:00am 23.9 21.4 19.8 78 2.6 SSE 32 43 17 23 1011.5 1011.5 0.0
21/07:30am 23.7 21.0 19.6 78 2.6 SSE 33 41 18 22 1011.5 1011.5 0.0
21/07:00am 23.7 21.1 19.8 79 2.5 SSE 33 46 18 25 1011.4 1011.4 0.0
21/06:30am 23.4 20.7 19.3 78 2.6 SSE 32 41 17 22 1011.1 1011.1 0.0
21/06:00am 23.4 20.2 19.5 79 2.5 SSE 35 44 19 24 1010.7 1010.7 0.0
21/05:30am 23.5 20.9 19.8 80 2.4 S 33 43 18 23 1010.5 1010.5 0.0
21/05:00am 23.3 20.2 19.7 80 2.3 S 35 44 19 24 1010.3 1010.3 0.0
21/04:30am 23.2 20.0 19.4 79 2.4 S 35 44 19 24 1009.9 1009.9 0.0
21/04:00am 23.4 20.6 19.5 79 2.5 SSE 33 44 18 24 1009.9 1009.9 0.0
21/03:30am 23.4 20.6 19.1 77 2.7 S 32 43 17 23 1010.0 1010.0 0.0
21/03:00am 23.4 20.5 19.3 78 2.6 S 33 41 18 22 1010.3 1010.3 0.0
21/02:30am 23.4 21.0 19.1 77 2.7 SSE 30 37 16 20 1010.6 1010.6 0.0
21/02:00am 23.2 21.2 19.2 78 2.5 S 28 37 15 20 1011.0 1011.0 0.0
21/01:30am 23.4 21.5 19.3 78 2.6 SSE 28 33 15 18 1011.3 1011.3 0.0
21/01:00am 23.4 21.6 19.5 79 2.5 SSE 28 37 15 20 1011.6 1011.6 0.0
21/12:30am 23.3 21.1 19.5 79 2.4 SSE 30 39 16 21 1011.7 1011.7 0.0
21/12:00am 23.2 20.8 19.2 78 2.5 SSE 30 39 16 21 1011.9 1011.9 0.0
 
Date/Time
WST
Temp
°C
App
Temp
°C
Dew
Point
°C
Rel
Hum
%
Delta-T
°C
Wind Press
QNH
hPa
Press
MSL
hPa
Rain since
9am
mm
Dir  Spd
km/h
Gust
km/h
Spd
kts
Gust
kts
20/11:30pm 23.7 21.1 19.6 78 2.6 SSE 32 44 17 24 1011.8 1011.8 0.0
20/11:00pm 23.7 20.9 19.4 77 2.8 SSE 33 43 18 23 1012.1 1012.1 0.0

Other formats

Comma delimited format used in spreadsheet applications
http://www.bom.gov.au/fwo/IDW60801/IDW60801.94405.axf

JavaScript Object Notation format (JSON) in row-major order
http://www.bom.gov.au/fwo/IDW60801/IDW60801.94405.json

Data quality

Most of these data are generated automatically and are frequently updated. Quality checks on data are not normally performed. It is possible for incorrect values to appear. Refer to information at About Latest Weather Observations and please check the disclaimer before using these data.